Time;durP1;ratioP1;P1;durP2;ratioP2;P2;SDS_P1;SDS_P2;PMS_P1;PMS_P2;Temp;Humidity;BMP_temperature;BMP_pressure;BME280_temperature;BME280_humidity;BME280_pressure;Samples;Min_cycle;Max_cycle;Signal;HPM_P1;HPM_P2
2023/05/09 00:00:43;;;;;;;55.72;31.35;;;18.20;99.90;;;;;;5072228;28;20101;-76
2023/05/09 00:03:10;;;;;;;56.15;31.40;;;17.70;99.90;;;;;;5073395;28;20074;-76
2023/05/09 00:05:36;;;;;;;55.10;30.95;;;17.60;99.90;;;;;;5071014;28;20048;-78
2023/05/09 00:08:02;;;;;;;61.50;32.85;;;17.50;99.90;;;;;;5068934;28;20476;-77
2023/05/09 00:10:27;;;;;;;60.30;31.52;;;18.10;99.90;;;;;;5042627;28;20056;-75
2023/05/09 00:12:53;;;;;;;56.00;32.42;;;17.40;99.90;;;;;;5046083;28;20037;-79
2023/05/09 00:15:19;;;;;;;52.33;29.05;;;17.70;99.90;;;;;;5068626;28;20040;-80
2023/05/09 00:17:45;;;;;;;56.95;30.88;;;18.00;99.90;;;;;;5071971;28;20106;-77
2023/05/09 00:20:11;;;;;;;50.85;29.45;;;18.00;99.90;;;;;;5073071;28;20044;-79
2023/05/09 00:22:40;;;;;;;56.50;30.30;;;17.70;99.90;;;;;;5069544;28;20093;-78
2023/05/09 00:25:08;;;;;;;56.83;30.50;;;18.10;99.90;;;;;;5054772;28;20125;-76
2023/05/09 00:27:34;;;;;;;58.72;31.08;;;18.20;99.90;;;;;;5045705;28;20044;-77
2023/05/09 00:30:00;;;;;;;60.60;31.52;;;18.40;99.90;;;;;;5070385;28;20123;-75
2023/05/09 00:32:27;;;;;;;62.83;33.13;;;17.60;99.90;;;;;;5077605;28;20031;-77
2023/05/09 00:38:34;;;;;;;62.40;31.55;;;18.30;99.90;;;;;;5043140;22;20111;-79
2023/05/09 00:41:00;;;;;;;65.28;33.53;;;18.70;99.90;;;;;;5001644;28;20061;-76
2023/05/09 00:43:26;;;;;;;62.47;32.22;;;18.30;99.90;;;;;;5032726;28;20076;-78
2023/05/09 00:45:51;;;;;;;60.08;31.88;;;18.60;99.90;;;;;;5006983;28;20041;-77
2023/05/09 00:48:17;;;;;;;58.70;32.50;;;18.70;99.90;;;;;;5022899;28;20045;-79
2023/05/09 00:50:43;;;;;;;60.25;33.45;;;18.00;99.90;;;;;;5003836;28;20042;-77
2023/05/09 00:53:10;;;;;;;56.17;31.30;;;18.20;99.90;;;;;;5024871;28;20053;-79
2023/05/09 00:55:36;;;;;;;60.47;32.75;;;18.60;99.90;;;;;;5021425;28;20116;-75
2023/05/09 00:58:05;;;;;;;51.50;28.73;;;18.70;99.90;;;;;;4981159;28;20443;-79
2023/05/09 01:00:31;;;;;;;55.28;30.40;;;17.50;99.90;;;;;;5002123;28;20052;-77
2023/05/09 01:02:57;;;;;;;60.28;32.22;;;18.50;99.90;;;;;;5007160;28;20044;-80
2023/05/09 01:05:28;;;;;;;61.15;31.67;;;17.40;99.90;;;;;;4997902;28;20042;-78
2023/05/09 01:08:23;;;;;;;58.85;30.00;;;17.50;99.90;;;;;;5024355;28;20037;-76
2023/05/09 01:11:07;;;;;;;;;;;18.40;99.90;;;;;;5020768;28;20029;-76
2023/05/09 01:14:19;;;;;;;61.03;29.88;;;17.90;99.90;;;;;;5016674;28;20314;-78
2023/05/09 01:17:00;;;;;;;54.85;30.35;;;18.40;99.90;;;;;;5017351;28;20046;-75
2023/05/09 01:19:40;;;;;;;54.25;28.35;;;18.30;99.90;;;;;;5004004;28;20099;-79
2023/05/09 01:22:10;;;;;;;58.90;31.33;;;18.40;99.90;;;;;;5019418;28;20418;-80
2023/05/09 01:25:11;;;;;;;60.80;30.95;;;17.50;99.90;;;;;;5005019;28;20033;-76
2023/05/09 01:28:08;;;;;;;59.85;30.30;;;17.70;99.90;;;;;;4992441;28;20104;-77
2023/05/09 01:30:37;;;;;;;57.58;30.45;;;18.50;99.90;;;;;;5007507;28;20083;-75
2023/05/09 01:33:06;;;;;;;59.25;29.95;;;18.00;99.90;;;;;;5021751;28;20049;-76
2023/05/09 01:35:36;;;;;;;58.28;30.58;;;17.40;99.90;;;;;;5006331;28;20117;-78
2023/05/09 01:38:08;;;;;;;60.58;30.65;;;17.60;99.90;;;;;;5014804;28;20438;-78
2023/05/09 01:40:35;;;;;;;56.20;30.77;;;18.60;99.90;;;;;;5012997;28;20141;-76
2023/05/09 01:43:05;;;;;;;59.65;31.17;;;18.50;99.90;;;;;;5009889;28;20447;-75
2023/05/09 01:45:32;;;;;;;61.17;30.52;;;18.00;99.90;;;;;;5006540;28;20044;-76
2023/05/09 01:47:59;;;;;;;58.55;30.77;;;18.60;99.90;;;;;;5008206;28;20065;-78
2023/05/09 01:50:25;;;;;;;61.17;31.48;;;17.70;99.90;;;;;;5025495;28;20033;-78
2023/05/09 01:52:55;;;;;;;54.72;30.35;;;18.40;99.90;;;;;;5023078;28;20081;-76
2023/05/09 01:55:24;;;;;;;60.15;30.45;;;17.40;99.90;;;;;;5010935;28;20111;-77
2023/05/09 01:57:52;;;;;;;57.72;30.13;;;17.50;99.90;;;;;;5019674;28;20046;-80
2023/05/09 02:00:18;;;;;;;59.08;31.30;;;17.90;99.90;;;;;;5010987;28;20140;-79
2023/05/09 02:02:45;;;;;;;52.80;29.95;;;18.40;99.90;;;;;;5029245;28;20145;-73
2023/05/09 02:05:12;;;;;;;62.70;32.05;;;18.60;99.90;;;;;;5021579;28;20045;-78
2023/05/09 02:07:40;;;;;;;76.05;34.00;;;18.10;99.90;;;;;;5024966;28;20429;-74
2023/05/09 02:10:08;;;;;;;71.20;34.50;;;17.60;99.90;;;;;;5015832;28;20106;-76
2023/05/09 02:12:34;;;;;;;68.50;33.78;;;18.20;99.90;;;;;;5008150;28;20105;-77
2023/05/09 02:15:00;;;;;;;66.35;34.60;;;17.90;99.90;;;;;;5006868;28;20041;-77
2023/05/09 02:17:29;;;;;;;63.90;33.50;;;18.20;99.90;;;;;;5013323;28;20068;-76
2023/05/09 02:19:56;;;;;;;73.82;36.17;;;17.80;99.90;;;;;;5010589;28;20041;-75
2023/05/09 02:22:21;;;;;;;73.65;34.47;;;17.90;99.90;;;;;;5019855;28;20041;-76
2023/05/09 02:24:47;;;;;;;66.40;33.97;;;17.80;99.90;;;;;;5025140;28;20041;-76
2023/05/09 02:27:14;;;;;;;66.30;33.00;;;18.00;99.90;;;;;;5010210;28;20034;-78
2023/05/09 02:29:44;;;;;;;77.75;35.92;;;17.50;99.90;;;;;;5009369;28;20052;-77
2023/05/09 02:32:14;;;;;;;68.78;35.00;;;18.10;99.90;;;;;;5000764;28;20042;-79
2023/05/09 02:34:40;;;;;;;69.20;33.63;;;17.70;99.90;;;;;;5028033;28;20485;-80
2023/05/09 02:37:07;;;;;;;75.30;35.33;;;18.10;99.90;;;;;;5010158;28;20769;-77
2023/05/09 02:39:34;;;;;;;79.45;36.15;;;17.90;99.90;;;;;;5003223;28;20398;-78
2023/05/09 02:42:06;;;;;;;70.20;34.70;;;18.30;99.90;;;;;;5028890;28;20053;-76
2023/05/09 02:44:32;;;;;;;69.97;37.90;;;18.70;99.90;;;;;;5029144;28;20060;-79
2023/05/09 02:46:58;;;;;;;75.90;34.38;;;18.60;99.90;;;;;;5027393;28;20046;-77
2023/05/09 02:49:23;;;;;;;79.13;35.55;;;18.40;99.90;;;;;;5019644;28;20073;-75
2023/05/09 02:51:49;;;;;;;78.72;35.08;;;18.10;99.90;;;;;;4991783;28;20064;-78
2023/05/09 02:54:15;;;;;;;67.78;33.38;;;18.60;99.90;;;;;;5011989;28;20033;-78
2023/05/09 02:56:40;;;;;;;69.60;34.45;;;17.80;99.90;;;;;;5015537;28;20044;-76
2023/05/09 02:59:06;;;;;;;68.35;34.53;;;18.70;99.90;;;;;;5026619;28;20053;-75
2023/05/09 03:01:32;;;;;;;68.65;33.60;;;18.00;99.90;;;;;;4995013;28;20746;-77
2023/05/09 03:03:57;;;;;;;75.07;35.55;;;18.90;99.90;;;;;;4993488;28;20060;-77
2023/05/09 03:06:23;;;;;;;78.45;36.63;;;18.90;99.90;;;;;;5011805;28;20045;-77
2023/05/09 03:08:49;;;;;;;67.88;35.20;;;17.70;99.90;;;;;;4991818;28;20056;-76
2023/05/09 03:11:14;;;;;;;70.07;34.35;;;18.20;99.90;;;;;;5009987;28;20076;-76
2023/05/09 03:13:40;;;;;;;66.05;33.38;;;18.10;99.90;;;;;;5026267;28;20041;-79
2023/05/09 03:16:06;;;;;;;62.80;32.95;;;18.80;99.90;;;;;;5027561;28;20033;-78
2023/05/09 03:18:32;;;;;;;69.75;34.22;;;18.70;99.90;;;;;;5023863;28;20085;-76
2023/05/09 03:20:57;;;;;;;75.25;36.15;;;18.30;99.90;;;;;;5010628;28;20477;-80
2023/05/09 03:23:23;;;;;;;77.60;35.55;;;17.90;99.90;;;;;;4992441;28;20049;-75
2023/05/09 03:25:49;;;;;;;72.95;36.65;;;18.20;99.90;;;;;;5011145;28;20091;-79
2023/05/09 03:28:14;;;;;;;73.60;36.53;;;17.80;99.90;;;;;;5024392;28;20049;-77
2023/05/09 03:30:40;;;;;;;73.63;36.92;;;18.40;99.90;;;;;;5025951;28;20080;-81
2023/05/09 03:33:06;;;;;;;68.93;34.85;;;18.50;99.90;;;;;;5007125;28;20041;-77
2023/05/09 03:35:32;;;;;;;66.22;33.10;;;18.20;99.90;;;;;;5002266;28;20081;-77
2023/05/09 03:37:58;;;;;;;61.83;34.13;;;18.50;99.90;;;;;;5020035;28;20040;-77
2023/05/09 03:40:23;;;;;;;61.28;31.95;;;17.90;99.90;;;;;;5022349;28;20137;-79
2023/05/09 03:42:49;;;;;;;63.67;34.60;;;18.70;99.90;;;;;;5025571;28;20615;-78
2023/05/09 03:45:15;;;;;;;63.22;34.30;;;19.10;99.90;;;;;;5009560;28;20033;-76
2023/05/09 03:47:40;;;;;;;80.28;37.28;;;18.90;99.90;;;;;;5025542;28;20084;-77
2023/05/09 03:50:07;;;;;;;66.82;35.53;;;19.00;99.90;;;;;;5023156;28;20044;-81
2023/05/09 03:52:32;;;;;;;66.95;35.75;;;18.60;99.90;;;;;;4991310;28;20042;-78
2023/05/09 03:54:58;;;;;;;68.32;34.50;;;18.50;99.90;;;;;;5018505;28;20064;-79
2023/05/09 03:57:24;;;;;;;63.55;33.38;;;17.80;99.90;;;;;;5007310;28;20045;-77
2023/05/09 03:59:50;;;;;;;72.05;34.00;;;18.70;99.90;;;;;;4993062;28;20095;-75
2023/05/09 04:02:15;;;;;;;66.85;35.05;;;19.20;99.90;;;;;;5007348;28;20099;-78
2023/05/09 04:04:41;;;;;;;69.95;36.25;;;17.90;99.90;;;;;;4999632;28;20485;-76
2023/05/09 04:07:07;;;;;;;57.15;32.22;;;19.30;99.90;;;;;;5024561;28;20041;-78
2023/05/09 04:09:33;;;;;;;59.47;32.45;;;18.10;99.90;;;;;;5023707;28;20068;-78
2023/05/09 04:11:59;;;;;;;63.00;35.67;;;19.00;99.90;;;;;;5022484;28;20037;-79
2023/05/09 04:14:24;;;;;;;51.35;30.05;;;19.40;99.90;;;;;;5006990;28;20079;-80
2023/05/09 04:16:50;;;;;;;53.03;32.03;;;18.90;99.90;;;;;;5004286;28;20067;-77
2023/05/09 04:19:16;;;;;;;52.95;31.70;;;18.00;99.90;;;;;;4990696;28;20096;-78
2023/05/09 04:21:41;;;;;;;45.60;29.67;;;19.40;99.90;;;;;;4991658;28;20095;-78
2023/05/09 04:24:07;;;;;;;39.67;27.08;;;18.80;99.90;;;;;;5021499;28;20091;-78
2023/05/09 04:26:36;;;;;;;45.15;27.80;;;18.10;99.90;;;;;;5024718;28;20046;-80
2023/05/09 04:29:02;;;;;;;35.55;25.92;;;18.10;99.90;;;;;;5006107;28;20041;-77
2023/05/09 04:31:29;;;;;;;35.40;24.90;;;17.80;99.90;;;;;;5022719;28;20057;-79
2023/05/09 04:33:57;;;;;;;33.35;24.77;;;18.50;99.90;;;;;;5005347;28;20114;-76
2023/05/09 04:36:22;;;;;;;33.58;24.15;;;18.80;99.90;;;;;;5016868;28;20041;-80
2023/05/09 04:38:48;;;;;;;31.70;23.65;;;18.90;99.90;;;;;;5003187;28;20041;-76
2023/05/09 04:41:15;;;;;;;29.23;21.90;;;18.90;99.90;;;;;;5028875;28;20052;-77
2023/05/09 04:43:42;;;;;;;26.83;22.00;;;18.00;99.90;;;;;;5031213;28;20041;-77
2023/05/09 04:46:07;;;;;;;26.98;20.90;;;18.70;99.90;;;;;;5011496;28;20051;-78
2023/05/09 04:48:34;;;;;;;24.70;19.90;;;17.90;99.90;;;;;;5011731;28;20041;-80
2023/05/09 04:51:00;;;;;;;27.30;21.52;;;18.30;99.90;;;;;;5019083;28;20045;-77
2023/05/09 04:53:35;;;;;;;26.42;20.05;;;18.10;99.90;;;;;;4990126;28;20226;-82
2023/05/09 04:56:01;;;;;;;22.65;17.70;;;18.20;99.90;;;;;;5028343;28;20045;-75
2023/05/09 04:58:27;;;;;;;27.75;22.30;;;18.20;99.90;;;;;;5009976;28;20211;-77
2023/05/09 05:00:52;;;;;;;26.00;20.42;;;18.40;99.90;;;;;;5002849;28;20143;-77
2023/05/09 05:03:18;;;;;;;21.85;17.98;;;19.40;99.90;;;;;;5007342;28;20076;-78
2023/05/09 05:05:44;;;;;;;24.17;19.50;;;19.10;99.90;;;;;;5018414;28;20046;-80
2023/05/09 05:08:10;;;;;;;20.50;17.60;;;19.00;99.90;;;;;;5021730;28;20045;-76
2023/05/09 05:10:35;;;;;;;24.75;19.77;;;18.70;99.90;;;;;;5027691;28;20127;-82
2023/05/09 05:13:01;;;;;;;28.92;21.38;;;17.90;99.90;;;;;;5021864;28;20090;-81
2023/05/09 05:15:27;;;;;;;22.02;18.90;;;18.90;99.90;;;;;;5019020;28;20184;-80
2023/05/09 05:17:52;;;;;;;22.63;18.80;;;18.50;99.90;;;;;;5006370;28;20033;-81
2023/05/09 05:20:18;;;;;;;22.17;18.35;;;18.10;99.90;;;;;;5027148;28;20048;-75
2023/05/09 05:22:44;;;;;;;24.75;19.00;;;18.20;99.90;;;;;;5023987;28;20035;-77
2023/05/09 05:25:10;;;;;;;23.88;18.88;;;19.20;99.90;;;;;;5023650;28;20042;-76
2023/05/09 05:27:36;;;;;;;25.67;18.95;;;18.80;99.90;;;;;;5020139;28;20041;-77
2023/05/09 05:30:02;;;;;;;25.58;19.70;;;19.70;99.90;;;;;;5014437;28;20036;-79
2023/05/09 05:32:27;;;;;;;23.02;17.88;;;19.00;99.90;;;;;;5034036;28;20536;-81
2023/05/09 05:34:53;;;;;;;25.13;20.58;;;19.20;99.90;;;;;;5035607;28;20033;-77
2023/05/09 05:37:19;;;;;;;28.77;22.80;;;18.60;99.90;;;;;;5024774;28;20084;-77
2023/05/09 05:39:47;;;;;;;22.70;18.38;;;18.60;99.90;;;;;;5017353;28;20370;-80
2023/05/09 05:42:13;;;;;;;24.38;18.63;;;19.40;99.90;;;;;;5014234;28;20060;-76
2023/05/09 05:44:39;;;;;;;23.55;19.27;;;18.70;99.90;;;;;;5010352;28;20064;-79
2023/05/09 05:47:05;;;;;;;26.58;20.33;;;19.40;99.90;;;;;;5014107;28;20440;-77
2023/05/09 05:49:30;;;;;;;23.17;19.67;;;19.50;99.90;;;;;;5012167;28;20040;-82
2023/05/09 05:51:56;;;;;;;23.30;18.15;;;19.30;99.90;;;;;;5027268;28;20037;-82
2023/05/09 05:54:21;;;;;;;24.77;18.98;;;18.80;99.90;;;;;;5017256;28;20091;-80
2023/05/09 05:56:47;;;;;;;27.10;19.55;;;19.10;99.90;;;;;;4998057;28;20467;-80
2023/05/09 05:59:13;;;;;;;24.70;19.10;;;18.50;99.90;;;;;;5027026;28;21733;-79
2023/05/09 06:01:39;;;;;;;24.33;19.83;;;18.70;99.90;;;;;;4995725;28;20048;-77
2023/05/09 06:04:05;;;;;;;29.33;21.25;;;19.00;99.90;;;;;;5026554;28;20068;-79
2023/05/09 06:06:33;;;;;;;23.00;17.20;;;19.40;99.90;;;;;;5016276;28;20382;-80
2023/05/09 06:08:58;;;;;;;27.58;22.13;;;18.20;99.90;;;;;;5016175;28;20079;-79
2023/05/09 06:11:24;;;;;;;26.23;21.48;;;19.70;99.90;;;;;;5030667;28;20085;-78
2023/05/09 06:13:50;;;;;;;28.98;23.38;;;18.70;99.90;;;;;;5040999;28;20044;-80
2023/05/09 06:16:15;;;;;;;23.10;19.08;;;18.10;99.90;;;;;;5025974;28;20036;-79
2023/05/09 06:18:41;;;;;;;21.85;17.27;;;19.70;99.90;;;;;;5046768;28;20090;-78
2023/05/09 06:21:07;;;;;;;23.90;20.00;;;19.40;99.90;;;;;;5035388;28;20052;-78
2023/05/09 06:23:33;;;;;;;26.20;19.50;;;18.20;99.90;;;;;;5029328;28;20068;-78
2023/05/09 06:25:59;;;;;;;23.52;19.13;;;19.50;99.90;;;;;;5011316;28;20120;-81
2023/05/09 06:28:25;;;;;;;25.67;21.75;;;19.50;99.90;;;;;;5033432;28;20128;-79
2023/05/09 06:30:51;;;;;;;28.92;22.48;;;19.00;99.90;;;;;;5028908;28;20189;-78
2023/05/09 06:33:17;;;;;;;31.17;21.27;;;19.40;99.90;;;;;;5027407;28;20563;-76
2023/05/09 06:35:42;;;;;;;27.10;20.70;;;18.50;99.90;;;;;;5027022;28;20040;-78
2023/05/09 06:38:08;;;;;;;29.88;18.83;;;18.60;99.90;;;;;;5013220;28;20495;-77
2023/05/09 06:40:34;;;;;;;26.73;21.45;;;19.70;99.90;;;;;;4997762;28;20048;-80
2023/05/09 06:42:59;;;;;;;27.70;20.75;;;19.10;99.90;;;;;;5017315;28;20080;-82
2023/05/09 06:45:26;;;;;;;29.15;21.13;;;18.90;99.90;;;;;;5011430;28;20044;-80
2023/05/09 06:47:51;;;;;;;26.45;21.15;;;18.90;99.90;;;;;;5008926;28;20041;-76
2023/05/09 06:50:17;;;;;;;37.38;24.95;;;18.50;99.90;;;;;;5000739;28;20052;-81
2023/05/09 06:52:43;;;;;;;39.17;26.35;;;20.20;99.90;;;;;;5014498;28;20041;-83
2023/05/09 06:55:09;;;;;;;35.97;23.08;;;18.50;99.90;;;;;;5027646;28;20805;-80
2023/05/09 06:57:35;;;;;;;33.67;23.33;;;19.90;99.90;;;;;;5030024;28;20040;-78
2023/05/09 07:00:01;;;;;;;34.83;23.83;;;19.50;99.90;;;;;;5009142;28;20060;-78
2023/05/09 07:02:27;;;;;;;38.67;26.02;;;18.70;99.90;;;;;;4991333;28;20755;-76
2023/05/09 07:04:52;;;;;;;33.60;23.27;;;19.70;99.90;;;;;;4995508;28;20124;-80
2023/05/09 07:07:18;;;;;;;33.03;23.25;;;19.80;99.90;;;;;;5030456;28;20095;-77
2023/05/09 07:09:44;;;;;;;35.90;25.13;;;19.70;99.90;;;;;;5023958;28;20160;-79
2023/05/09 07:12:09;;;;;;;33.75;23.27;;;20.30;99.90;;;;;;5007889;28;20342;-74
2023/05/09 07:14:35;;;;;;;35.17;26.27;;;19.50;99.90;;;;;;5029620;28;20106;-77
2023/05/09 07:17:01;;;;;;;32.95;24.90;;;19.70;99.90;;;;;;5030151;28;20124;-75
2023/05/09 07:19:26;;;;;;;31.15;25.23;;;18.50;99.90;;;;;;5013155;28;20072;-77
2023/05/09 07:21:52;;;;;;;37.08;27.38;;;18.90;99.90;;;;;;4996939;28;20033;-76
2023/05/09 07:24:17;;;;;;;29.20;22.67;;;19.40;99.90;;;;;;5029264;28;20041;-83
2023/05/09 07:26:43;;;;;;;32.75;23.70;;;20.40;99.90;;;;;;5025867;28;20127;-77
2023/05/09 07:29:09;;;;;;;34.50;22.95;;;20.30;99.90;;;;;;5030288;28;20049;-76
2023/05/09 07:31:35;;;;;;;35.13;26.23;;;19.40;99.90;;;;;;4994275;28;20064;-77
2023/05/09 07:34:00;;;;;;;36.40;24.58;;;20.40;99.90;;;;;;5029531;28;20079;-77
2023/05/09 07:36:26;;;;;;;42.33;26.73;;;18.90;99.90;;;;;;5005130;28;20056;-74
2023/05/09 07:38:52;;;;;;;34.22;23.77;;;19.00;99.90;;;;;;5025580;28;20128;-79
2023/05/09 07:41:18;;;;;;;44.63;28.60;;;18.80;99.90;;;;;;5011806;28;20053;-75
2023/05/09 07:43:44;;;;;;;41.17;27.55;;;20.50;99.90;;;;;;5011861;28;20071;-75
2023/05/09 07:46:09;;;;;;;43.15;27.13;;;20.40;99.90;;;;;;5011990;28;20148;-73
2023/05/09 07:48:35;;;;;;;49.10;31.17;;;18.60;99.90;;;;;;5010863;28;20044;-76
2023/05/09 07:51:01;;;;;;;47.83;28.92;;;18.60;99.90;;;;;;4993657;28;20098;-74
2023/05/09 07:53:27;;;;;;;48.65;31.05;;;19.00;99.90;;;;;;5020187;28;20044;-73
2023/05/09 07:55:52;;;;;;;44.20;27.58;;;19.80;99.90;;;;;;5011678;28;20041;-77
2023/05/09 07:58:18;;;;;;;49.92;31.90;;;19.70;99.90;;;;;;5012047;28;20127;-77
2023/05/09 08:00:44;;;;;;;50.05;31.98;;;20.30;99.90;;;;;;5009560;28;20451;-81
2023/05/09 08:03:10;;;;;;;56.38;33.83;;;19.70;99.90;;;;;;5009975;28;20049;-80
2023/05/09 08:05:35;;;;;;;48.38;31.83;;;19.10;99.90;;;;;;5011665;28;20037;-76
2023/05/09 08:08:01;;;;;;;50.70;31.92;;;20.50;99.90;;;;;;5026710;28;20033;-74
2023/05/09 08:10:29;;;;;;;49.95;31.77;;;19.10;99.90;;;;;;5026189;28;20041;-75
2023/05/09 08:12:55;;;;;;;54.53;33.20;;;19.60;99.90;;;;;;5030800;28;20045;-74
2023/05/09 08:15:21;;;;;;;55.03;35.55;;;18.80;99.90;;;;;;5029131;28;20052;-72
2023/05/09 08:17:47;;;;;;;58.97;35.78;;;20.70;99.90;;;;;;5012595;28;20048;-74
2023/05/09 08:20:13;;;;;;;57.38;35.85;;;19.40;99.90;;;;;;5012468;28;20044;-76
2023/05/09 08:22:39;;;;;;;56.65;33.25;;;20.80;99.90;;;;;;5023518;28;20389;-75
2023/05/09 08:25:06;;;;;;;50.53;31.50;;;19.60;99.90;;;;;;5025687;28;20124;-78
2023/05/09 08:27:32;;;;;;;49.70;31.15;;;19.00;99.90;;;;;;5030921;28;20049;-74
2023/05/09 08:29:58;;;;;;;49.97;30.58;;;20.90;99.90;;;;;;5027398;28;20041;-76
2023/05/09 08:32:23;;;;;;;48.28;31.40;;;20.90;99.90;;;;;;5026028;28;20052;-77
2023/05/09 08:34:49;;;;;;;57.22;33.65;;;20.20;99.90;;;;;;5010423;28;20147;-75
2023/05/09 08:37:15;;;;;;;47.47;28.58;;;20.80;99.90;;;;;;5040652;28;20460;-82
2023/05/09 08:39:41;;;;;;;52.72;33.38;;;19.70;99.90;;;;;;5028936;28;20060;-79
2023/05/09 08:42:08;;;;;;;51.45;29.90;;;20.40;99.90;;;;;;5028028;28;20231;-79
2023/05/09 08:44:34;;;;;;;48.45;30.70;;;20.50;99.90;;;;;;5030073;28;20052;-79
2023/05/09 08:47:03;;;;;;;45.90;25.38;;;21.00;99.90;;;;;;5026631;28;20090;-78
2023/05/09 08:49:29;;;;;;;44.50;28.67;;;20.00;99.90;;;;;;5012127;28;20122;-77
2023/05/09 08:51:56;;;;;;;52.97;32.08;;;19.50;99.90;;;;;;5010524;28;20033;-81
2023/05/09 08:54:22;;;;;;;48.50;31.35;;;19.80;99.90;;;;;;5027308;28;20045;-76
2023/05/09 08:56:49;;;;;;;52.97;34.13;;;21.10;99.90;;;;;;5029402;28;20127;-79
2023/05/09 08:59:16;;;;;;;51.58;32.08;;;19.90;99.90;;;;;;5028917;28;20037;-76
2023/05/09 09:01:43;;;;;;;51.50;30.95;;;20.30;99.90;;;;;;5012597;28;20045;-75
2023/05/09 09:04:10;;;;;;;48.53;30.17;;;19.70;99.90;;;;;;5027323;28;20461;-78
2023/05/09 09:06:38;;;;;;;44.25;28.30;;;21.20;99.90;;;;;;5028127;28;20045;-76
2023/05/09 09:09:05;;;;;;;44.78;28.67;;;20.80;99.90;;;;;;5026470;28;20040;-76
2023/05/09 09:11:34;;;;;;;49.38;29.40;;;21.60;99.90;;;;;;5028800;28;20092;-75
2023/05/09 09:14:04;;;;;;;49.10;29.85;;;21.00;99.90;;;;;;5030114;28;20122;-79
2023/05/09 09:16:32;;;;;;;44.22;27.00;;;20.60;99.90;;;;;;5023574;28;20124;-79
2023/05/09 09:18:59;;;;;;;45.20;27.75;;;21.80;99.90;;;;;;5013270;28;20500;-78
2023/05/09 09:21:25;;;;;;;46.17;27.55;;;20.20;99.90;;;;;;5012180;28;20114;-80
2023/05/09 09:23:53;;;;;;;50.10;28.90;;;20.80;99.90;;;;;;5013293;28;20045;-77
2023/05/09 09:26:20;;;;;;;46.90;30.10;;;20.90;99.90;;;;;;5021462;28;20037;-78
2023/05/09 09:28:46;;;;;;;42.60;27.83;;;21.70;99.90;;;;;;5028092;28;20037;-77
2023/05/09 09:31:23;;;;;;;38.28;25.27;;;21.40;99.90;;;;;;5029069;28;20830;-81
2023/05/09 09:33:49;;;;;;;37.10;24.13;;;20.50;99.90;;;;;;5028605;28;20060;-77
2023/05/09 09:36:16;;;;;;;38.75;25.80;;;21.50;99.90;;;;;;5028473;28;20033;-77
2023/05/09 09:38:43;;;;;;;45.40;25.45;;;21.60;99.90;;;;;;5012115;28;20033;-77
2023/05/09 09:41:11;;;;;;;40.33;25.88;;;20.70;99.90;;;;;;5011820;28;20041;-76
2023/05/09 09:43:37;;;;;;;40.55;24.83;;;21.60;99.90;;;;;;5011788;28;20056;-79
2023/05/09 09:46:03;;;;;;;40.08;24.67;;;21.60;99.90;;;;;;5029256;28;20049;-80
2023/05/09 09:48:34;;;;;;;38.80;25.60;;;21.60;99.90;;;;;;5029533;28;20401;-77
2023/05/09 09:51:10;;;;;;;44.70;29.05;;;21.70;99.90;;;;;;5029087;28;20049;-75
2023/05/09 09:53:42;;;;;;;35.85;23.65;;;20.60;99.90;;;;;;5039123;28;20174;-77
2023/05/09 09:56:09;;;;;;;37.72;25.73;;;21.50;99.90;;;;;;5028872;28;20076;-80
2023/05/09 09:58:35;;;;;;;34.75;20.90;;;20.80;99.90;;;;;;5028626;28;20404;-77
2023/05/09 10:01:09;;;;;;;34.22;23.00;;;21.70;99.90;;;;;;5029261;28;20040;-77
2023/05/09 10:03:39;;;;;;;34.80;23.42;;;21.80;99.90;;;;;;5028321;28;20041;-75
2023/05/09 10:06:08;;;;;;;39.53;24.38;;;21.00;99.90;;;;;;5005629;28;20041;-75
2023/05/09 10:08:34;;;;;;;29.42;20.42;;;21.70;99.90;;;;;;5023422;28;20040;-77
2023/05/09 10:11:00;;;;;;;32.78;20.85;;;21.40;99.90;;;;;;5028592;28;20029;-78
2023/05/09 10:13:27;;;;;;;32.63;22.48;;;21.00;99.90;;;;;;5030238;28;20071;-74
2023/05/09 10:15:56;;;;;;;28.15;20.70;;;20.80;99.90;;;;;;5032572;28;20060;-76
2023/05/09 10:18:32;;;;;;;34.40;23.00;;;21.50;99.90;;;;;;5031526;28;20764;-73
2023/05/09 10:21:00;;;;;;;35.33;23.63;;;20.70;99.90;;;;;;5032435;28;20519;-74
2023/05/09 10:23:29;;;;;;;31.00;21.17;;;21.70;99.90;;;;;;5032027;28;20508;-77
2023/05/09 10:26:08;;;;;;;30.48;22.77;;;20.80;99.90;;;;;;5032839;28;20033;-76
2023/05/09 10:28:37;;;;;;;29.13;20.05;;;21.40;99.90;;;;;;5032248;28;20388;-80
2023/05/09 10:31:09;;;;;;;26.92;17.95;;;21.50;99.90;;;;;;5015635;28;20049;-75
2023/05/09 10:33:56;;;;;;;32.25;21.05;;;21.40;99.90;;;;;;5016284;28;20094;-79
2023/05/09 10:36:22;;;;;;;26.73;16.83;;;21.70;99.90;;;;;;5014155;28;20397;-77
2023/05/09 10:38:50;;;;;;;25.70;16.45;;;21.20;99.90;;;;;;5039257;28;20048;-80
2023/05/09 10:41:17;;;;;;;28.55;20.90;;;21.20;99.90;;;;;;5031933;28;20099;-76
2023/05/09 10:43:44;;;;;;;29.33;20.48;;;21.40;99.90;;;;;;5032583;28;20068;-79
2023/05/09 10:46:11;;;;;;;26.83;19.30;;;21.80;99.90;;;;;;5031964;28;20861;-73
2023/05/09 10:48:38;;;;;;;27.58;19.67;;;21.40;99.90;;;;;;5032028;28;20485;-73
2023/05/09 10:51:04;;;;;;;32.45;22.05;;;21.30;99.90;;;;;;5015945;28;20385;-77
2023/05/09 10:53:47;;;;;;;30.42;21.77;;;21.60;99.90;;;;;;5039114;28;20041;-75
2023/05/09 10:56:31;;;;;;;27.50;19.80;;;22.30;99.90;;;;;;5031078;28;20087;-72
2023/05/09 10:58:57;;;;;;;51.10;24.25;;;21.70;99.90;;;;;;5032464;28;20041;-76
2023/05/09 11:01:37;;;;;;;26.63;20.23;;;21.60;99.90;;;;;;5030807;28;20045;-77
2023/05/09 11:04:16;;;;;;;27.45;19.80;;;22.10;99.90;;;;;;5031718;28;20492;-79
2023/05/09 11:06:49;;;;;;;25.90;18.70;;;22.00;99.90;;;;;;5015020;28;20044;-78
2023/05/09 11:09:37;;;;;;;21.73;17.90;;;22.40;99.90;;;;;;5031039;28;20040;-77
2023/05/09 11:12:06;;;;;;;23.42;18.52;;;22.50;99.90;;;;;;5031930;28;20376;-80
2023/05/09 11:14:40;;;;;;;27.02;20.63;;;22.40;99.90;;;;;;5030259;28;20087;-78
2023/05/09 11:17:20;;;;;;;26.27;18.80;;;22.10;99.90;;;;;;5016622;28;20037;-77
2023/05/09 11:19:46;;;;;;;25.75;18.40;;;22.00;99.90;;;;;;5030275;28;20087;-75
2023/05/09 11:22:16;;;;;;;22.45;17.92;;;22.60;99.90;;;;;;5028025;28;20512;-77
2023/05/09 11:24:49;;;;;;;20.77;15.90;;;22.30;99.90;;;;;;5031259;28;20075;-75
2023/05/09 11:27:20;;;;;;;24.88;17.80;;;21.90;99.90;;;;;;5026482;28;20087;-73
2023/05/09 11:29:51;;;;;;;21.83;16.95;;;22.10;99.90;;;;;;4998692;28;20118;-77
2023/05/09 11:32:18;;;;;;;22.50;17.77;;;22.50;99.90;;;;;;5031093;28;20067;-75
2023/05/09 11:34:44;;;;;;;22.65;17.33;;;22.10;99.90;;;;;;5030732;28;20040;-78
2023/05/09 11:37:12;;;;;;;23.08;17.00;;;22.10;99.90;;;;;;5030952;28;20067;-79
2023/05/09 11:40:03;;;;;;;23.08;16.05;;;22.50;99.90;;;;;;5029369;28;20056;-78
2023/05/09 11:42:30;;;;;;;21.55;15.55;;;22.10;99.90;;;;;;5030821;28;20037;-82
2023/05/09 11:44:59;;;;;;;19.08;13.60;;;22.40;99.90;;;;;;5014665;28;20037;-78
2023/05/09 11:47:27;;;;;;;19.58;15.30;;;22.10;99.90;;;;;;5030554;28;20504;-74
2023/05/09 11:49:53;;;;;;;21.10;16.85;;;22.50;99.90;;;;;;5013879;28;20041;-78
2023/05/09 11:52:19;;;;;;;26.45;19.15;;;22.20;99.90;;;;;;5030422;28;20090;-79
2023/05/09 11:54:45;;;;;;;30.48;21.42;;;22.60;99.90;;;;;;5014342;28;20116;-80
2023/05/09 11:57:16;;;;;;;32.88;25.00;;;22.80;99.90;;;;;;5011432;28;20234;-76
2023/05/09 11:59:45;;;;;;;30.98;23.05;;;22.40;99.90;;;;;;5014657;28;20557;-75
2023/05/09 12:02:11;;;;;;;33.65;24.25;;;22.20;99.90;;;;;;5028318;28;20405;-79
2023/05/09 12:04:37;;;;;;;32.10;23.45;;;22.10;99.90;;;;;;5009583;28;20044;-76
2023/05/09 12:07:03;;;;;;;36.25;24.92;;;21.90;99.90;;;;;;5030741;28;20037;-74
2023/05/09 12:09:33;;;;;;;34.22;25.23;;;21.90;99.90;;;;;;5029246;28;20045;-74
2023/05/09 12:12:00;;;;;;;37.88;25.92;;;21.90;99.90;;;;;;5030102;28;20812;-76
2023/05/09 12:14:33;;;;;;;41.05;28.25;;;22.20;99.90;;;;;;5031326;28;20127;-74
2023/05/09 12:16:59;;;;;;;32.53;22.27;;;21.90;99.90;;;;;;5013948;28;20048;-74
2023/05/09 12:19:25;;;;;;;34.38;24.98;;;22.40;99.90;;;;;;5030606;28;20045;-79
2023/05/09 12:22:05;;;;;;;37.03;25.58;;;22.50;99.90;;;;;;5024417;28;20049;-80
2023/05/09 12:24:34;;;;;;;31.55;22.63;;;22.50;99.90;;;;;;5030716;28;20055;-78
2023/05/09 12:27:01;;;;;;;34.38;24.10;;;22.20;99.90;;;;;;5029825;28;20049;-76
2023/05/09 12:29:27;;;;;;;36.97;25.27;;;22.50;99.90;;;;;;5029047;28;20044;-80
2023/05/09 12:31:53;;;;;;;35.15;23.33;;;22.40;99.90;;;;;;5012421;28;20044;-81
2023/05/09 12:34:19;;;;;;;39.55;24.00;;;22.50;99.90;;;;;;5030007;28;20041;-78